createdAt,value
2023-05-24T00:00:30.494Z,2.72
2023-05-24T00:03:01.411Z,3.15
2023-05-24T00:11:56.487Z,2.80
2023-05-24T00:17:56.786Z,2.63
2023-05-24T00:26:15.788Z,2.92
2023-05-24T03:08:12.428Z,5.70
2023-05-24T03:37:28.280Z,4.65
2023-05-24T03:39:58.436Z,4.90
2023-05-24T03:42:25.852Z,4.45
2023-05-24T03:45:03.922Z,4.10
2023-05-24T03:47:31.210Z,5.63
2023-05-24T03:49:58.450Z,4.75
2023-05-24T03:52:26.642Z,5.07
2023-05-24T03:55:06.753Z,4.95
2023-05-24T03:57:34.215Z,4.40
2023-05-24T04:13:22.358Z,4.88
2023-05-24T05:01:39.901Z,4.95
2023-05-24T05:04:08.111Z,4.63
2023-05-24T05:06:38.643Z,4.60
2023-05-24T05:09:09.621Z,4.78
2023-05-24T05:11:37.288Z,4.78
2023-05-24T05:14:04.059Z,4.45
2023-05-24T05:16:31.957Z,4.40
2023-05-24T05:18:58.924Z,5.88
2023-05-24T05:21:25.792Z,4.88
2023-05-24T05:23:52.622Z,5.28
2023-05-24T05:26:19.424Z,5.35
2023-05-24T05:28:46.247Z,4.82
2023-05-24T05:31:13.074Z,5.03
2023-05-24T05:33:39.914Z,4.82
2023-05-24T05:36:06.884Z,5.43
2023-05-24T05:38:33.680Z,4.95
2023-05-24T05:41:00.557Z,5.07
2023-05-24T05:43:27.297Z,5.55
2023-05-24T05:45:54.265Z,5.40
2023-05-24T05:48:21.055Z,5.22
2023-05-24T05:50:47.990Z,5.45
2023-05-24T05:53:16.450Z,4.93
2023-05-24T05:55:43.274Z,4.60
2023-05-24T05:58:10.121Z,5.22
2023-05-24T06:00:36.984Z,5.30
2023-05-24T06:03:03.925Z,4.95
2023-05-24T06:05:30.870Z,4.82
2023-05-24T06:07:57.661Z,4.75
2023-05-24T06:10:24.431Z,4.72
2023-05-24T06:12:51.303Z,4.70
2023-05-24T06:15:18.520Z,4.88
2023-05-24T06:17:47.947Z,5.43
2023-05-24T06:20:16.993Z,4.47
2023-05-24T06:22:45.038Z,4.80
2023-05-24T06:25:14.790Z,5.32
2023-05-24T06:27:41.824Z,4.72
2023-05-24T06:30:09.324Z,4.80
2023-05-24T06:32:36.347Z,4.80
2023-05-24T06:35:03.776Z,5.20
2023-05-24T06:37:31.309Z,4.13
2023-05-24T06:39:58.150Z,4.32
2023-05-24T06:42:24.900Z,5.82
2023-05-24T06:44:51.692Z,4.95
2023-05-24T06:47:18.619Z,5.47
2023-05-24T06:49:45.546Z,5.35
2023-05-24T06:52:13.992Z,4.30
2023-05-24T06:54:41.041Z,5.10
2023-05-24T06:57:08.843Z,4.93
2023-05-24T06:59:35.678Z,4.82
2023-05-24T07:02:03.989Z,4.90
2023-05-24T07:04:31.595Z,4.97
2023-05-24T07:06:58.729Z,4.32
2023-05-24T07:09:25.591Z,5.22
2023-05-24T07:11:53.510Z,5.15
2023-05-24T07:14:20.482Z,4.65
2023-05-24T07:16:48.823Z,4.28
2023-05-24T07:19:16.153Z,4.30
2023-05-24T07:21:43.030Z,5.53
2023-05-24T07:24:09.894Z,5.35
2023-05-24T07:26:36.863Z,5.63
2023-05-24T07:29:03.688Z,4.57
2023-05-24T07:31:32.594Z,4.68
2023-05-24T07:33:59.500Z,4.57
2023-05-24T07:36:27.067Z,4.50
2023-05-24T07:38:54.448Z,4.85
2023-05-24T07:41:27.266Z,3.78
2023-05-24T07:43:57.019Z,4.43
2023-05-24T07:46:23.986Z,4.38
2023-05-24T07:48:53.885Z,3.78
2023-05-24T07:51:21.597Z,4.80
2023-05-24T07:53:48.421Z,4.22
2023-05-24T07:56:15.321Z,4.70
2023-05-24T07:58:44.256Z,4.85
2023-05-24T08:01:11.061Z,4.20
2023-05-24T08:03:38.304Z,5.05
2023-05-24T08:06:05.965Z,4.00
2023-05-24T08:08:33.654Z,4.63
2023-05-24T08:11:00.850Z,4.65
2023-05-24T08:16:02.158Z,4.72
2023-05-24T08:18:29.170Z,4.80
2023-05-24T08:20:56.219Z,4.75
2023-05-24T08:23:23.325Z,5.85
2023-05-24T08:25:50.117Z,5.45
2023-05-24T08:28:17.074Z,5.13
2023-05-24T08:30:44.590Z,5.53
2023-05-24T08:33:11.751Z,5.93
2023-05-24T08:35:38.704Z,4.38
2023-05-24T08:38:06.446Z,5.00
2023-05-24T08:40:33.243Z,4.07
2023-05-24T08:43:01.896Z,4.25
2023-05-24T08:45:36.912Z,4.57
2023-05-24T08:48:04.952Z,4.75
2023-05-24T08:50:32.653Z,4.10
2023-05-24T08:53:02.656Z,4.00
2023-05-24T08:55:33.508Z,3.65
2023-05-24T08:58:01.048Z,4.20
2023-05-24T09:00:28.099Z,3.50
2023-05-24T09:02:57.642Z,4.25
2023-05-24T09:05:26.071Z,3.60
2023-05-24T09:07:54.582Z,4.25
2023-05-24T09:10:22.742Z,3.22
2023-05-24T09:12:56.189Z,3.80
2023-05-24T09:15:23.009Z,4.47
2023-05-24T09:17:49.980Z,4.82
2023-05-24T09:20:16.835Z,4.00
2023-05-24T09:22:44.148Z,4.43
2023-05-24T09:25:14.777Z,4.47
2023-05-24T09:27:41.710Z,4.15
2023-05-24T09:30:10.801Z,4.65
2023-05-24T09:32:38.083Z,4.22
2023-05-24T09:35:09.461Z,4.43
2023-05-24T09:37:38.862Z,5.50
2023-05-24T09:40:07.324Z,5.05
2023-05-24T09:42:34.258Z,4.55
2023-05-24T09:45:07.727Z,4.60
2023-05-24T09:47:36.151Z,4.53
2023-05-24T09:50:04.959Z,3.88
2023-05-24T09:52:33.219Z,4.47
2023-05-24T09:55:00.944Z,4.53
2023-05-24T09:57:28.323Z,4.43
2023-05-24T09:59:56.322Z,4.30
2023-05-24T10:02:26.102Z,4.45
2023-05-24T10:05:00.677Z,4.20
2023-05-24T10:07:27.680Z,4.53
2023-05-24T10:09:55.371Z,4.10
2023-05-24T10:12:23.343Z,4.13
2023-05-24T10:14:52.055Z,4.65
2023-05-24T10:17:19.566Z,4.53
2023-05-24T10:19:46.425Z,4.07
2023-05-24T10:22:15.875Z,4.57
2023-05-24T10:24:47.780Z,4.72
2023-05-24T10:27:19.381Z,4.45
2023-05-24T10:30:01.517Z,4.35
2023-05-24T10:32:32.299Z,4.32
2023-05-24T10:35:00.645Z,3.85
2023-05-24T10:37:27.610Z,4.10
2023-05-24T10:39:54.499Z,5.15
2023-05-24T10:42:21.596Z,4.35
2023-05-24T10:44:48.399Z,4.78
2023-05-24T10:47:17.154Z,5.32
2023-05-24T10:49:53.074Z,4.30
2023-05-24T10:52:20.841Z,4.45
2023-05-24T10:55:10.180Z,4.25
2023-05-24T10:57:38.399Z,3.65
2023-05-24T11:03:09.350Z,4.68
2023-05-24T11:05:57.034Z,3.50
2023-05-24T11:08:25.850Z,4.10
2023-05-24T11:11:24.660Z,4.78
2023-05-24T11:13:57.942Z,4.63
2023-05-24T11:16:37.840Z,4.53
2023-05-24T11:19:35.934Z,4.78
2023-05-24T11:22:06.271Z,4.28
2023-05-24T11:24:33.885Z,4.53
2023-05-24T11:27:02.533Z,4.57
2023-05-24T11:29:30.579Z,4.57
2023-05-24T11:32:04.307Z,4.85
2023-05-24T11:34:32.167Z,4.95
2023-05-24T11:37:00.509Z,3.90
2023-05-24T11:39:33.050Z,4.10
2023-05-24T11:42:01.431Z,4.53
2023-05-24T11:44:31.842Z,4.97
2023-05-24T11:47:03.528Z,4.90
2023-05-24T11:49:30.626Z,3.88
2023-05-24T11:51:58.736Z,4.15
2023-05-24T11:54:36.139Z,3.85
2023-05-24T12:01:42.959Z,4.03
2023-05-24T12:04:10.892Z,4.22
2023-05-24T12:06:43.077Z,3.20
2023-05-24T12:09:13.492Z,4.00
2023-05-24T12:11:43.656Z,4.80
2023-05-24T12:14:26.331Z,3.63
2023-05-24T12:16:58.473Z,3.80
2023-05-24T12:19:33.706Z,4.75
2023-05-24T12:22:05.835Z,4.30
2023-05-24T12:27:07.891Z,4.72
2023-05-24T12:29:40.967Z,4.70
2023-05-24T12:32:13.639Z,5.20
2023-05-24T12:34:42.498Z,4.50
2023-05-24T12:37:10.142Z,4.43
2023-05-24T12:39:37.548Z,4.00
2023-05-24T12:42:05.190Z,4.80
2023-05-24T12:44:38.209Z,4.63
2023-05-24T12:47:20.122Z,4.43
2023-05-24T12:49:47.995Z,4.38
2023-05-24T12:52:17.768Z,4.10
2023-05-24T12:54:48.455Z,4.93
2023-05-24T12:57:41.531Z,3.88
2023-05-24T13:00:11.036Z,4.30
2023-05-24T13:02:40.644Z,5.03
2023-05-24T13:05:08.687Z,4.22
2023-05-24T13:07:36.158Z,4.68
2023-05-24T13:10:03.671Z,3.22
2023-05-24T13:12:30.583Z,4.90
2023-05-24T13:14:57.382Z,3.55
2023-05-24T13:17:24.326Z,4.18
2023-05-24T13:19:51.352Z,3.50
2023-05-24T13:22:18.430Z,3.50
2023-05-24T13:24:45.372Z,3.97
2023-05-24T13:27:12.423Z,4.13
2023-05-24T13:29:48.849Z,4.00
2023-05-24T13:32:26.177Z,4.85
2023-05-24T13:34:53.091Z,4.03
2023-05-24T13:37:19.982Z,3.80
2023-05-24T13:39:46.999Z,3.03
2023-05-24T13:42:14.734Z,3.70
2023-05-24T13:44:41.671Z,3.00
2023-05-24T13:47:08.731Z,4.20
2023-05-24T13:49:36.400Z,3.55
2023-05-24T13:52:03.810Z,3.42
2023-05-24T13:54:30.679Z,4.05
2023-05-24T13:56:57.780Z,3.97
2023-05-24T13:59:24.785Z,3.20
2023-05-24T14:01:51.732Z,3.75
2023-05-24T14:04:18.600Z,3.42
2023-05-24T14:06:45.762Z,3.70
2023-05-24T14:09:12.657Z,3.55
2023-05-24T14:11:39.579Z,4.03
2023-05-24T14:16:37.007Z,4.38
2023-05-24T14:19:04.499Z,3.83
2023-05-24T14:21:32.542Z,4.15
2023-05-24T14:23:59.518Z,3.65
2023-05-24T14:26:27.759Z,3.65
2023-05-24T14:28:56.301Z,4.32
2023-05-24T14:31:24.489Z,3.75
2023-05-24T14:33:51.399Z,3.85
2023-05-24T14:36:18.387Z,4.50
2023-05-24T14:38:45.299Z,3.03
2023-05-24T14:41:12.440Z,4.00
2023-05-24T15:06:43.382Z,3.85
2023-05-24T15:09:10.912Z,4.70
2023-05-24T15:11:38.720Z,4.30
2023-05-24T15:14:08.270Z,4.38
2023-05-24T15:16:37.059Z,4.40
2023-05-24T15:19:04.412Z,4.35
2023-05-24T15:21:32.004Z,5.10
2023-05-24T15:23:58.999Z,4.63
2023-05-24T15:26:27.400Z,4.53
2023-05-24T15:28:54.634Z,4.68
2023-05-24T15:31:22.034Z,5.72
2023-05-24T15:33:51.020Z,5.45
2023-05-24T15:36:18.730Z,4.45
2023-05-24T15:38:46.196Z,5.90
2023-05-24T15:41:13.370Z,5.35
2023-05-24T15:43:40.529Z,6.53
2023-05-24T15:46:18.405Z,5.00
2023-05-24T15:48:49.635Z,5.28
2023-05-24T15:53:51.697Z,5.85
2023-05-24T15:56:21.932Z,5.78
2023-05-24T15:58:50.433Z,5.45
2023-05-24T16:01:17.918Z,5.18
2023-05-24T16:03:45.098Z,6.15
2023-05-24T16:06:14.679Z,5.70
2023-05-24T16:08:45.453Z,5.70
2023-05-24T16:11:13.432Z,6.13
2023-05-24T16:13:44.681Z,5.95
2023-05-24T16:16:12.039Z,6.43
2023-05-24T16:18:39.107Z,5.65
2023-05-24T16:21:06.776Z,5.45
2023-05-24T16:23:33.761Z,5.70
2023-05-24T16:26:00.753Z,7.45
2023-05-24T16:28:28.176Z,5.32
2023-05-24T16:30:56.452Z,5.43
2023-05-24T16:33:24.747Z,5.30
2023-05-24T16:35:55.819Z,5.55
2023-05-24T16:38:26.200Z,5.53
2023-05-24T16:40:53.898Z,5.72
2023-05-24T16:43:21.599Z,5.18
2023-05-24T16:45:48.952Z,5.32
2023-05-24T16:48:15.915Z,5.93
2023-05-24T16:50:43.110Z,4.93
2023-05-24T16:53:10.147Z,5.97
2023-05-24T16:55:36.945Z,5.40
2023-05-24T16:58:03.892Z,5.75
2023-05-24T17:00:30.713Z,6.45
2023-05-24T17:02:59.436Z,6.10
2023-05-24T17:05:26.574Z,6.15
2023-05-24T17:07:54.670Z,5.90
2023-05-24T17:10:21.665Z,6.32
2023-05-24T17:12:49.442Z,6.18
2023-05-24T17:15:16.413Z,5.63
2023-05-24T17:17:43.432Z,5.25
2023-05-24T17:20:10.757Z,5.63
2023-05-24T17:22:37.627Z,6.10
2023-05-24T17:25:05.089Z,5.60
2023-05-24T17:27:32.325Z,6.75
2023-05-24T17:32:41.959Z,5.68
2023-05-24T17:35:09.250Z,6.25
2023-05-24T17:37:36.247Z,5.63
2023-05-24T17:40:03.485Z,5.60
2023-05-24T17:42:30.298Z,5.72
2023-05-24T17:44:57.123Z,5.22
2023-05-24T17:47:24.098Z,6.10
2023-05-24T17:49:51.121Z,5.30
2023-05-24T17:52:18.054Z,6.15
2023-05-24T17:54:45.132Z,5.78
2023-05-24T17:57:12.017Z,5.50
2023-05-24T17:59:41.632Z,5.47
2023-05-24T18:02:08.516Z,5.22
2023-05-24T18:04:35.578Z,6.10
2023-05-24T18:07:02.420Z,5.47
2023-05-24T18:09:32.026Z,5.75
2023-05-24T18:11:58.986Z,5.72
2023-05-24T18:14:25.873Z,6.03
2023-05-24T18:16:52.825Z,5.38
2023-05-24T18:19:20.571Z,5.95
2023-05-24T18:21:49.192Z,5.50
2023-05-24T18:24:16.540Z,5.40
2023-05-24T18:26:44.668Z,5.95
2023-05-24T18:29:12.755Z,5.10
2023-05-24T18:31:39.703Z,5.20
2023-05-24T18:34:06.576Z,6.10
2023-05-24T18:36:33.407Z,4.80
2023-05-24T18:39:00.227Z,5.32
2023-05-24T18:41:27.084Z,5.20
2023-05-24T18:43:53.928Z,6.13
2023-05-24T18:46:21.083Z,6.78
2023-05-24T18:48:48.101Z,5.50
2023-05-24T18:51:15.039Z,5.45
2023-05-24T18:53:42.019Z,5.10
2023-05-24T18:56:09.123Z,5.35
2023-05-24T18:58:36.066Z,5.75
2023-05-24T19:01:03.204Z,6.10
2023-05-24T19:03:30.162Z,6.10
2023-05-24T19:05:58.987Z,4.88
2023-05-24T19:08:25.807Z,6.00
2023-05-24T19:10:52.628Z,5.53
2023-05-24T19:13:19.638Z,4.75
2023-05-24T19:15:46.636Z,6.00
2023-05-24T19:18:13.795Z,6.28
2023-05-24T19:20:40.744Z,6.30
2023-05-24T19:23:07.665Z,6.18
2023-05-24T19:25:44.985Z,4.93
2023-05-24T19:28:14.996Z,5.47
2023-05-24T19:30:45.059Z,5.38
2023-05-24T19:33:12.792Z,5.80
2023-05-24T19:35:40.104Z,5.68
2023-05-24T19:40:59.848Z,4.80
2023-05-24T19:43:30.372Z,5.50
2023-05-24T19:45:58.177Z,5.45
2023-05-24T19:48:25.105Z,6.20
2023-05-24T19:50:52.097Z,5.38
2023-05-24T19:53:21.008Z,5.75
2023-05-24T19:55:47.917Z,5.07
2023-05-24T19:58:14.829Z,6.13
2023-05-24T20:00:41.729Z,6.13
2023-05-24T20:03:08.590Z,6.03
2023-05-24T20:05:35.562Z,6.43
2023-05-24T20:08:02.696Z,5.80
2023-05-24T20:10:31.864Z,5.57
2023-05-24T20:12:59.058Z,6.22
2023-05-24T20:15:29.316Z,5.57
2023-05-24T20:20:30.378Z,5.78
2023-05-24T20:22:57.176Z,5.93
2023-05-24T20:25:24.520Z,5.35
2023-05-24T20:27:51.322Z,5.93
2023-05-24T20:30:18.356Z,5.85
2023-05-24T20:32:45.240Z,5.50
2023-05-24T20:35:12.314Z,5.40
2023-05-24T20:37:39.146Z,5.53
2023-05-24T20:40:07.434Z,5.07
2023-05-24T20:42:34.436Z,5.57
2023-05-24T20:45:03.034Z,5.47
2023-05-24T20:47:30.447Z,5.05
2023-05-24T20:49:57.317Z,4.97
2023-05-24T20:52:25.100Z,4.57
2023-05-24T20:54:51.872Z,5.65
2023-05-24T20:57:18.678Z,5.20
2023-05-24T20:59:45.620Z,5.68
2023-05-24T21:02:12.401Z,4.97
2023-05-24T21:04:39.225Z,5.32
2023-05-24T21:07:06.070Z,5.57
2023-05-24T21:09:32.866Z,4.97
2023-05-24T21:11:59.713Z,5.30
2023-05-24T21:14:26.987Z,5.55
2023-05-24T21:16:54.389Z,5.65
2023-05-24T21:19:21.204Z,6.10
2023-05-24T21:21:48.331Z,5.57
2023-05-24T21:24:16.274Z,5.63
2023-05-24T21:26:43.067Z,5.10
2023-05-24T21:29:13.205Z,5.30
2023-05-24T21:31:41.148Z,5.30
2023-05-24T21:34:08.136Z,5.63
2023-05-24T21:36:34.944Z,5.25
2023-05-24T21:39:07.371Z,5.15
2023-05-24T21:41:40.626Z,5.10
2023-05-24T21:44:08.236Z,4.93
2023-05-24T21:46:36.299Z,4.85
2023-05-24T21:49:03.159Z,4.85
2023-05-24T21:51:29.930Z,5.07
2023-05-24T21:53:56.779Z,4.95
2023-05-24T21:56:23.621Z,4.32
2023-05-24T21:58:50.519Z,5.20
2023-05-24T22:01:17.321Z,4.80
2023-05-24T22:03:44.229Z,4.55
2023-05-24T22:06:11.153Z,5.38
2023-05-24T22:08:38.055Z,4.25
2023-05-24T22:11:04.998Z,5.07
2023-05-24T22:13:31.750Z,4.13
2023-05-24T22:15:59.805Z,4.45
2023-05-24T22:18:28.304Z,4.50
2023-05-24T22:20:58.322Z,4.55
2023-05-24T22:23:28.282Z,3.70
2023-05-24T22:25:55.285Z,5.07
2023-05-24T22:28:22.088Z,3.85
2023-05-24T22:30:49.059Z,4.68
2023-05-24T22:33:16.472Z,3.65
2023-05-24T22:35:43.818Z,4.35
2023-05-24T22:38:10.751Z,4.53
2023-05-24T22:40:38.910Z,3.83
2023-05-24T22:43:05.794Z,4.10
2023-05-24T22:45:32.648Z,3.30
2023-05-24T22:47:59.487Z,4.15
2023-05-24T22:50:27.114Z,3.88
2023-05-24T22:52:56.731Z,3.88
2023-05-24T22:55:23.977Z,3.70
2023-05-24T22:57:50.873Z,3.75
2023-05-24T23:00:17.915Z,4.30
2023-05-24T23:02:44.902Z,3.83
2023-05-24T23:05:11.755Z,4.28
2023-05-24T23:07:39.933Z,3.42
2023-05-24T23:10:08.129Z,3.38
2023-05-24T23:12:35.954Z,4.43
2023-05-24T23:15:02.925Z,3.63
2023-05-24T23:17:29.723Z,4.20
2023-05-24T23:19:56.654Z,5.32
2023-05-24T23:22:23.960Z,4.80
2023-05-24T23:24:51.184Z,4.93
2023-05-24T23:27:18.091Z,4.75
2023-05-24T23:29:44.962Z,5.10
2023-05-24T23:32:11.750Z,5.25
2023-05-24T23:34:38.561Z,4.63
2023-05-24T23:37:06.135Z,5.85
2023-05-24T23:39:32.925Z,4.55
2023-05-24T23:41:59.842Z,6.38
2023-05-24T23:44:26.827Z,4.45
2023-05-24T23:46:54.068Z,5.22
2023-05-24T23:49:21.121Z,5.63
2023-05-24T23:51:48.367Z,4.95
2023-05-24T23:54:15.866Z,4.50
2023-05-24T23:56:43.387Z,4.90
2023-05-24T23:59:10.565Z,4.10
